sensor_id;sensor_type;location;lat;lon;timestamp;P1;durP1;ratioP1;P2;durP2;ratioP2
37267;SDS011;23154;52.542;13.362;2022-07-25T00:00:30;8.75;;;2.70;;
37267;SDS011;23154;52.542;13.362;2022-07-25T00:02:56;7.20;;;2.75;;
37267;SDS011;23154;52.542;13.362;2022-07-25T00:05:21;6.63;;;2.50;;
37267;SDS011;23154;52.542;13.362;2022-07-25T00:07:47;8.85;;;2.80;;
37267;SDS011;23154;52.542;13.362;2022-07-25T00:10:13;10.55;;;2.88;;
37267;SDS011;23154;52.542;13.362;2022-07-25T00:12:39;21.83;;;2.97;;
37267;SDS011;23154;52.542;13.362;2022-07-25T00:15:06;7.85;;;2.60;;
37267;SDS011;23154;52.542;13.362;2022-07-25T00:17:32;9.13;;;2.70;;
37267;SDS011;23154;52.542;13.362;2022-07-25T00:19:58;9.60;;;2.80;;
37267;SDS011;23154;52.542;13.362;2022-07-25T00:22:23;8.68;;;2.72;;
37267;SDS011;23154;52.542;13.362;2022-07-25T00:24:49;9.55;;;2.53;;
37267;SDS011;23154;52.542;13.362;2022-07-25T00:27:14;7.68;;;2.67;;
37267;SDS011;23154;52.542;13.362;2022-07-25T00:29:40;9.85;;;3.00;;
37267;SDS011;23154;52.542;13.362;2022-07-25T00:32:06;8.63;;;2.70;;
37267;SDS011;23154;52.542;13.362;2022-07-25T00:34:31;10.73;;;2.75;;
37267;SDS011;23154;52.542;13.362;2022-07-25T00:36:57;8.40;;;2.80;;
37267;SDS011;23154;52.542;13.362;2022-07-25T00:39:22;10.55;;;3.00;;
37267;SDS011;23154;52.542;13.362;2022-07-25T00:41:48;12.43;;;2.78;;
37267;SDS011;23154;52.542;13.362;2022-07-25T00:44:21;10.18;;;2.92;;
37267;SDS011;23154;52.542;13.362;2022-07-25T00:46:48;8.38;;;2.60;;
37267;SDS011;23154;52.542;13.362;2022-07-25T00:49:14;7.22;;;2.30;;
37267;SDS011;23154;52.542;13.362;2022-07-25T00:51:39;12.60;;;2.72;;
37267;SDS011;23154;52.542;13.362;2022-07-25T00:54:05;7.80;;;2.42;;
37267;SDS011;23154;52.542;13.362;2022-07-25T00:56:30;10.05;;;2.58;;
37267;SDS011;23154;52.542;13.362;2022-07-25T00:58:56;5.95;;;2.33;;
37267;SDS011;23154;52.542;13.362;2022-07-25T01:01:22;7.70;;;2.40;;
37267;SDS011;23154;52.542;13.362;2022-07-25T01:03:48;9.80;;;2.50;;
37267;SDS011;23154;52.542;13.362;2022-07-25T01:06:13;7.80;;;2.55;;
37267;SDS011;23154;52.542;13.362;2022-07-25T01:08:39;7.63;;;2.55;;
37267;SDS011;23154;52.542;13.362;2022-07-25T01:11:05;6.93;;;2.40;;
37267;SDS011;23154;52.542;13.362;2022-07-25T01:13:32;8.40;;;2.50;;
37267;SDS011;23154;52.542;13.362;2022-07-25T01:15:58;8.32;;;2.35;;
37267;SDS011;23154;52.542;13.362;2022-07-25T01:18:24;9.57;;;2.35;;
37267;SDS011;23154;52.542;13.362;2022-07-25T01:20:49;6.95;;;2.78;;
37267;SDS011;23154;52.542;13.362;2022-07-25T01:23:15;6.38;;;2.42;;
37267;SDS011;23154;52.542;13.362;2022-07-25T01:25:40;6.38;;;2.55;;
37267;SDS011;23154;52.542;13.362;2022-07-25T01:28:06;5.97;;;2.22;;
37267;SDS011;23154;52.542;13.362;2022-07-25T01:30:32;6.53;;;2.33;;
37267;SDS011;23154;52.542;13.362;2022-07-25T01:32:57;6.25;;;2.40;;
37267;SDS011;23154;52.542;13.362;2022-07-25T01:35:23;8.90;;;2.75;;
37267;SDS011;23154;52.542;13.362;2022-07-25T01:37:49;6.10;;;2.30;;
37267;SDS011;23154;52.542;13.362;2022-07-25T01:40:14;6.53;;;2.30;;
37267;SDS011;23154;52.542;13.362;2022-07-25T01:42:41;7.75;;;2.40;;
37267;SDS011;23154;52.542;13.362;2022-07-25T01:45:07;6.60;;;2.20;;
37267;SDS011;23154;52.542;13.362;2022-07-25T01:47:34;7.70;;;2.53;;
37267;SDS011;23154;52.542;13.362;2022-07-25T01:50:00;6.63;;;2.10;;
37267;SDS011;23154;52.542;13.362;2022-07-25T01:52:27;8.05;;;2.38;;
37267;SDS011;23154;52.542;13.362;2022-07-25T01:54:53;9.77;;;2.78;;
37267;SDS011;23154;52.542;13.362;2022-07-25T01:57:19;8.23;;;2.47;;
37267;SDS011;23154;52.542;13.362;2022-07-25T01:59:44;6.88;;;2.47;;
37267;SDS011;23154;52.542;13.362;2022-07-25T02:02:10;9.40;;;2.80;;
37267;SDS011;23154;52.542;13.362;2022-07-25T02:04:36;12.00;;;2.80;;
37267;SDS011;23154;52.542;13.362;2022-07-25T02:07:02;8.00;;;2.33;;
37267;SDS011;23154;52.542;13.362;2022-07-25T02:09:29;6.57;;;2.35;;
37267;SDS011;23154;52.542;13.362;2022-07-25T02:11:54;7.60;;;2.40;;
37267;SDS011;23154;52.542;13.362;2022-07-25T02:14:20;6.53;;;2.38;;
37267;SDS011;23154;52.542;13.362;2022-07-25T02:16:46;8.48;;;2.50;;
37267;SDS011;23154;52.542;13.362;2022-07-25T02:19:12;7.35;;;2.40;;
37267;SDS011;23154;52.542;13.362;2022-07-25T02:21:38;7.97;;;2.65;;
37267;SDS011;23154;52.542;13.362;2022-07-25T02:24:04;9.73;;;2.83;;
37267;SDS011;23154;52.542;13.362;2022-07-25T02:26:29;11.27;;;3.00;;
37267;SDS011;23154;52.542;13.362;2022-07-25T02:28:55;9.10;;;3.17;;
37267;SDS011;23154;52.542;13.362;2022-07-25T02:31:20;9.35;;;2.40;;
37267;SDS011;23154;52.542;13.362;2022-07-25T02:33:46;8.77;;;2.90;;
37267;SDS011;23154;52.542;13.362;2022-07-25T02:36:12;9.75;;;2.65;;
37267;SDS011;23154;52.542;13.362;2022-07-25T02:38:37;8.32;;;2.63;;
37267;SDS011;23154;52.542;13.362;2022-07-25T02:41:03;8.88;;;2.50;;
37267;SDS011;23154;52.542;13.362;2022-07-25T02:43:29;6.70;;;2.50;;
37267;SDS011;23154;52.542;13.362;2022-07-25T02:45:55;9.65;;;2.42;;
37267;SDS011;23154;52.542;13.362;2022-07-25T02:48:20;10.18;;;3.00;;
37267;SDS011;23154;52.542;13.362;2022-07-25T02:50:46;7.25;;;2.30;;
37267;SDS011;23154;52.542;13.362;2022-07-25T02:53:12;11.20;;;2.20;;
37267;SDS011;23154;52.542;13.362;2022-07-25T02:55:37;10.88;;;2.53;;
37267;SDS011;23154;52.542;13.362;2022-07-25T02:58:03;11.88;;;3.22;;
37267;SDS011;23154;52.542;13.362;2022-07-25T03:00:28;7.80;;;2.67;;
37267;SDS011;23154;52.542;13.362;2022-07-25T03:02:54;11.50;;;2.65;;
37267;SDS011;23154;52.542;13.362;2022-07-25T03:05:20;6.70;;;2.75;;
37267;SDS011;23154;52.542;13.362;2022-07-25T03:07:46;7.13;;;2.50;;
37267;SDS011;23154;52.542;13.362;2022-07-25T03:10:12;7.18;;;2.67;;
37267;SDS011;23154;52.542;13.362;2022-07-25T03:12:38;11.75;;;2.70;;
37267;SDS011;23154;52.542;13.362;2022-07-25T03:15:05;7.13;;;2.50;;
37267;SDS011;23154;52.542;13.362;2022-07-25T03:17:31;7.43;;;2.28;;
37267;SDS011;23154;52.542;13.362;2022-07-25T03:19:57;7.18;;;2.65;;
37267;SDS011;23154;52.542;13.362;2022-07-25T03:22:23;9.20;;;2.95;;
37267;SDS011;23154;52.542;13.362;2022-07-25T03:24:49;7.22;;;2.13;;
37267;SDS011;23154;52.542;13.362;2022-07-25T03:27:15;9.02;;;2.65;;
37267;SDS011;23154;52.542;13.362;2022-07-25T03:29:41;9.20;;;2.50;;
37267;SDS011;23154;52.542;13.362;2022-07-25T03:32:07;6.93;;;2.35;;
37267;SDS011;23154;52.542;13.362;2022-07-25T03:34:33;8.13;;;2.50;;
37267;SDS011;23154;52.542;13.362;2022-07-25T03:36:59;8.98;;;2.65;;
37267;SDS011;23154;52.542;13.362;2022-07-25T03:39:25;7.05;;;2.55;;
37267;SDS011;23154;52.542;13.362;2022-07-25T03:41:51;12.23;;;3.30;;
37267;SDS011;23154;52.542;13.362;2022-07-25T03:44:18;8.05;;;2.65;;
37267;SDS011;23154;52.542;13.362;2022-07-25T03:46:44;11.52;;;2.47;;
37267;SDS011;23154;52.542;13.362;2022-07-25T03:49:09;8.18;;;2.50;;
37267;SDS011;23154;52.542;13.362;2022-07-25T03:51:35;12.27;;;2.53;;
37267;SDS011;23154;52.542;13.362;2022-07-25T03:54:01;10.75;;;3.30;;
37267;SDS011;23154;52.542;13.362;2022-07-25T03:56:27;9.13;;;2.50;;
37267;SDS011;23154;52.542;13.362;2022-07-25T03:59:03;8.27;;;2.60;;
37267;SDS011;23154;52.542;13.362;2022-07-25T04:01:29;10.50;;;2.88;;
37267;SDS011;23154;52.542;13.362;2022-07-25T04:03:55;13.35;;;3.55;;
37267;SDS011;23154;52.542;13.362;2022-07-25T04:06:21;11.70;;;2.90;;
37267;SDS011;23154;52.542;13.362;2022-07-25T04:08:48;9.15;;;2.55;;
37267;SDS011;23154;52.542;13.362;2022-07-25T04:11:14;9.45;;;2.83;;
37267;SDS011;23154;52.542;13.362;2022-07-25T04:13:40;6.53;;;2.33;;
37267;SDS011;23154;52.542;13.362;2022-07-25T04:16:06;9.77;;;2.80;;
37267;SDS011;23154;52.542;13.362;2022-07-25T04:18:32;11.60;;;2.90;;
37267;SDS011;23154;52.542;13.362;2022-07-25T04:20:58;9.23;;;2.80;;
37267;SDS011;23154;52.542;13.362;2022-07-25T04:23:23;7.13;;;2.47;;
37267;SDS011;23154;52.542;13.362;2022-07-25T04:25:49;9.15;;;3.13;;
37267;SDS011;23154;52.542;13.362;2022-07-25T04:28:15;8.20;;;2.70;;
37267;SDS011;23154;52.542;13.362;2022-07-25T04:30:40;7.28;;;2.47;;
37267;SDS011;23154;52.542;13.362;2022-07-25T04:33:09;8.98;;;2.60;;
37267;SDS011;23154;52.542;13.362;2022-07-25T04:35:35;9.40;;;3.03;;
37267;SDS011;23154;52.542;13.362;2022-07-25T04:38:01;7.00;;;2.70;;
37267;SDS011;23154;52.542;13.362;2022-07-25T04:40:26;8.23;;;2.75;;
37267;SDS011;23154;52.542;13.362;2022-07-25T04:42:52;11.02;;;2.88;;
37267;SDS011;23154;52.542;13.362;2022-07-25T04:45:18;9.57;;;2.80;;
37267;SDS011;23154;52.542;13.362;2022-07-25T04:47:43;9.98;;;2.65;;
37267;SDS011;23154;52.542;13.362;2022-07-25T04:50:09;9.52;;;2.60;;
37267;SDS011;23154;52.542;13.362;2022-07-25T04:52:34;7.38;;;2.67;;
37267;SDS011;23154;52.542;13.362;2022-07-25T04:55:00;11.20;;;2.97;;
37267;SDS011;23154;52.542;13.362;2022-07-25T04:57:28;9.18;;;2.40;;
37267;SDS011;23154;52.542;13.362;2022-07-25T04:59:53;9.85;;;2.63;;
37267;SDS011;23154;52.542;13.362;2022-07-25T05:02:20;8.52;;;2.85;;
37267;SDS011;23154;52.542;13.362;2022-07-25T05:04:45;8.10;;;2.97;;
37267;SDS011;23154;52.542;13.362;2022-07-25T05:07:11;8.45;;;2.30;;
37267;SDS011;23154;52.542;13.362;2022-07-25T05:09:37;12.43;;;3.30;;
37267;SDS011;23154;52.542;13.362;2022-07-25T05:12:03;12.80;;;3.20;;
37267;SDS011;23154;52.542;13.362;2022-07-25T05:14:29;11.15;;;3.15;;
37267;SDS011;23154;52.542;13.362;2022-07-25T05:16:55;12.80;;;2.90;;
37267;SDS011;23154;52.542;13.362;2022-07-25T05:19:20;13.07;;;2.90;;
37267;SDS011;23154;52.542;13.362;2022-07-25T05:21:46;12.98;;;3.15;;
37267;SDS011;23154;52.542;13.362;2022-07-25T05:24:11;12.88;;;2.78;;
37267;SDS011;23154;52.542;13.362;2022-07-25T05:26:37;12.82;;;3.25;;
37267;SDS011;23154;52.542;13.362;2022-07-25T05:29:03;13.10;;;3.38;;
37267;SDS011;23154;52.542;13.362;2022-07-25T05:31:28;19.23;;;3.50;;
37267;SDS011;23154;52.542;13.362;2022-07-25T05:33:54;13.32;;;2.92;;
37267;SDS011;23154;52.542;13.362;2022-07-25T05:36:19;10.65;;;3.50;;
37267;SDS011;23154;52.542;13.362;2022-07-25T05:38:45;13.02;;;3.90;;
37267;SDS011;23154;52.542;13.362;2022-07-25T05:41:11;12.68;;;3.17;;
37267;SDS011;23154;52.542;13.362;2022-07-25T05:43:36;13.55;;;3.88;;
37267;SDS011;23154;52.542;13.362;2022-07-25T05:46:02;18.17;;;3.45;;
37267;SDS011;23154;52.542;13.362;2022-07-25T05:48:29;16.60;;;4.75;;
37267;SDS011;23154;52.542;13.362;2022-07-25T05:50:55;14.23;;;3.67;;
37267;SDS011;23154;52.542;13.362;2022-07-25T05:53:23;13.07;;;3.17;;
37267;SDS011;23154;52.542;13.362;2022-07-25T05:55:49;11.90;;;3.40;;
37267;SDS011;23154;52.542;13.362;2022-07-25T05:58:15;10.57;;;3.33;;
37267;SDS011;23154;52.542;13.362;2022-07-25T06:00:41;14.27;;;2.97;;
37267;SDS011;23154;52.542;13.362;2022-07-25T06:03:06;11.98;;;3.13;;
37267;SDS011;23154;52.542;13.362;2022-07-25T06:05:32;10.23;;;2.90;;
37267;SDS011;23154;52.542;13.362;2022-07-25T06:07:57;10.05;;;3.38;;
37267;SDS011;23154;52.542;13.362;2022-07-25T06:10:23;15.57;;;3.50;;
37267;SDS011;23154;52.542;13.362;2022-07-25T06:12:49;13.25;;;3.80;;
37267;SDS011;23154;52.542;13.362;2022-07-25T06:15:14;14.73;;;3.75;;
37267;SDS011;23154;52.542;13.362;2022-07-25T06:17:40;14.30;;;3.38;;
37267;SDS011;23154;52.542;13.362;2022-07-25T06:20:06;13.88;;;3.50;;
37267;SDS011;23154;52.542;13.362;2022-07-25T06:22:32;12.15;;;3.72;;
37267;SDS011;23154;52.542;13.362;2022-07-25T06:24:57;12.95;;;3.47;;
37267;SDS011;23154;52.542;13.362;2022-07-25T06:27:25;12.75;;;3.70;;
37267;SDS011;23154;52.542;13.362;2022-07-25T06:29:51;14.45;;;3.58;;
37267;SDS011;23154;52.542;13.362;2022-07-25T06:32:16;14.60;;;3.50;;
37267;SDS011;23154;52.542;13.362;2022-07-25T06:34:42;15.23;;;5.75;;
37267;SDS011;23154;52.542;13.362;2022-07-25T06:37:07;16.38;;;3.75;;
37267;SDS011;23154;52.542;13.362;2022-07-25T06:39:33;12.98;;;3.88;;
37267;SDS011;23154;52.542;13.362;2022-07-25T06:41:59;11.55;;;3.63;;
37267;SDS011;23154;52.542;13.362;2022-07-25T06:44:25;16.92;;;3.53;;
37267;SDS011;23154;52.542;13.362;2022-07-25T06:46:51;15.35;;;4.60;;
37267;SDS011;23154;52.542;13.362;2022-07-25T06:49:17;19.58;;;4.03;;
37267;SDS011;23154;52.542;13.362;2022-07-25T06:51:44;11.70;;;3.72;;
37267;SDS011;23154;52.542;13.362;2022-07-25T06:54:09;11.85;;;4.13;;
37267;SDS011;23154;52.542;13.362;2022-07-25T06:56:38;12.15;;;3.72;;
37267;SDS011;23154;52.542;13.362;2022-07-25T06:59:03;13.90;;;3.88;;
37267;SDS011;23154;52.542;13.362;2022-07-25T07:01:29;16.55;;;4.28;;
37267;SDS011;23154;52.542;13.362;2022-07-25T07:03:55;20.10;;;4.28;;
37267;SDS011;23154;52.542;13.362;2022-07-25T07:06:20;18.92;;;4.00;;
37267;SDS011;23154;52.542;13.362;2022-07-25T07:08:46;13.30;;;4.22;;
37267;SDS011;23154;52.542;13.362;2022-07-25T07:11:12;13.13;;;4.43;;
37267;SDS011;23154;52.542;13.362;2022-07-25T07:13:39;14.43;;;4.55;;
37267;SDS011;23154;52.542;13.362;2022-07-25T07:16:05;16.90;;;4.90;;
37267;SDS011;23154;52.542;13.362;2022-07-25T07:18:30;17.35;;;4.57;;
37267;SDS011;23154;52.542;13.362;2022-07-25T07:20:56;13.52;;;4.50;;
37267;SDS011;23154;52.542;13.362;2022-07-25T07:23:22;14.43;;;5.32;;
37267;SDS011;23154;52.542;13.362;2022-07-25T07:25:47;11.73;;;4.72;;
37267;SDS011;23154;52.542;13.362;2022-07-25T07:28:13;17.30;;;5.03;;
37267;SDS011;23154;52.542;13.362;2022-07-25T07:30:39;15.52;;;5.30;;
37267;SDS011;23154;52.542;13.362;2022-07-25T07:33:05;13.93;;;4.63;;
37267;SDS011;23154;52.542;13.362;2022-07-25T07:35:30;14.77;;;4.63;;
37267;SDS011;23154;52.542;13.362;2022-07-25T07:37:56;16.52;;;4.53;;
37267;SDS011;23154;52.542;13.362;2022-07-25T07:40:22;14.68;;;5.07;;
37267;SDS011;23154;52.542;13.362;2022-07-25T07:42:49;15.02;;;5.10;;
37267;SDS011;23154;52.542;13.362;2022-07-25T07:45:16;14.05;;;5.00;;
37267;SDS011;23154;52.542;13.362;2022-07-25T07:47:46;18.08;;;5.32;;
37267;SDS011;23154;52.542;13.362;2022-07-25T07:50:14;15.15;;;5.63;;
37267;SDS011;23154;52.542;13.362;2022-07-25T07:52:42;16.58;;;5.78;;
37267;SDS011;23154;52.542;13.362;2022-07-25T07:55:08;18.13;;;5.50;;
37267;SDS011;23154;52.542;13.362;2022-07-25T07:57:53;15.02;;;4.80;;
37267;SDS011;23154;52.542;13.362;2022-07-25T08:00:20;16.55;;;6.72;;
37267;SDS011;23154;52.542;13.362;2022-07-25T08:02:47;15.35;;;4.90;;
37267;SDS011;23154;52.542;13.362;2022-07-25T08:05:22;14.68;;;4.95;;
37267;SDS011;23154;52.542;13.362;2022-07-25T08:07:49;16.33;;;5.40;;
37267;SDS011;23154;52.542;13.362;2022-07-25T08:10:28;16.15;;;4.90;;
37267;SDS011;23154;52.542;13.362;2022-07-25T08:12:57;15.90;;;5.22;;
37267;SDS011;23154;52.542;13.362;2022-07-25T08:15:24;13.88;;;5.07;;
37267;SDS011;23154;52.542;13.362;2022-07-25T08:17:50;15.93;;;5.13;;
37267;SDS011;23154;52.542;13.362;2022-07-25T08:20:19;16.58;;;5.00;;
37267;SDS011;23154;52.542;13.362;2022-07-25T08:22:47;15.90;;;5.30;;
37267;SDS011;23154;52.542;13.362;2022-07-25T08:25:15;13.27;;;5.05;;
37267;SDS011;23154;52.542;13.362;2022-07-25T08:27:43;18.52;;;5.85;;
37267;SDS011;23154;52.542;13.362;2022-07-25T08:30:09;15.65;;;5.35;;
37267;SDS011;23154;52.542;13.362;2022-07-25T08:32:44;14.85;;;6.00;;
37267;SDS011;23154;52.542;13.362;2022-07-25T08:35:16;16.23;;;5.78;;
37267;SDS011;23154;52.542;13.362;2022-07-25T08:37:44;20.67;;;5.82;;
37267;SDS011;23154;52.542;13.362;2022-07-25T08:40:11;15.52;;;5.63;;
37267;SDS011;23154;52.542;13.362;2022-07-25T08:42:39;21.70;;;6.07;;
37267;SDS011;23154;52.542;13.362;2022-07-25T08:45:07;15.60;;;5.47;;
37267;SDS011;23154;52.542;13.362;2022-07-25T08:47:37;15.35;;;5.90;;
37267;SDS011;23154;52.542;13.362;2022-07-25T08:50:05;15.88;;;5.53;;
37267;SDS011;23154;52.542;13.362;2022-07-25T08:52:36;19.23;;;6.25;;
37267;SDS011;23154;52.542;13.362;2022-07-25T08:55:06;19.13;;;6.13;;
37267;SDS011;23154;52.542;13.362;2022-07-25T08:57:33;19.55;;;6.38;;
37267;SDS011;23154;52.542;13.362;2022-07-25T08:59:59;17.02;;;6.30;;
37267;SDS011;23154;52.542;13.362;2022-07-25T09:02:26;18.00;;;6.43;;
37267;SDS011;23154;52.542;13.362;2022-07-25T09:04:53;15.57;;;6.80;;
37267;SDS011;23154;52.542;13.362;2022-07-25T09:09:57;17.80;;;6.70;;
37267;SDS011;23154;52.542;13.362;2022-07-25T09:12:24;18.15;;;7.00;;
37267;SDS011;23154;52.542;13.362;2022-07-25T09:14:52;21.15;;;7.30;;
37267;SDS011;23154;52.542;13.362;2022-07-25T09:17:18;16.80;;;6.78;;
37267;SDS011;23154;52.542;13.362;2022-07-25T09:19:54;17.25;;;6.80;;
37267;SDS011;23154;52.542;13.362;2022-07-25T09:22:21;18.63;;;6.97;;
37267;SDS011;23154;52.542;13.362;2022-07-25T09:24:47;20.08;;;7.07;;
37267;SDS011;23154;52.542;13.362;2022-07-25T09:27:13;17.45;;;6.65;;
37267;SDS011;23154;52.542;13.362;2022-07-25T09:29:41;14.95;;;6.80;;
37267;SDS011;23154;52.542;13.362;2022-07-25T09:32:18;17.40;;;6.60;;
37267;SDS011;23154;52.542;13.362;2022-07-25T09:34:46;18.13;;;6.85;;
37267;SDS011;23154;52.542;13.362;2022-07-25T09:37:14;17.58;;;7.13;;
37267;SDS011;23154;52.542;13.362;2022-07-25T09:45:02;16.95;;;7.15;;
37267;SDS011;23154;52.542;13.362;2022-07-25T09:47:36;19.73;;;7.72;;
37267;SDS011;23154;52.542;13.362;2022-07-25T09:50:03;22.05;;;7.45;;
37267;SDS011;23154;52.542;13.362;2022-07-25T09:52:31;17.52;;;6.78;;
37267;SDS011;23154;52.542;13.362;2022-07-25T09:54:59;18.40;;;7.10;;
37267;SDS011;23154;52.542;13.362;2022-07-25T09:57:27;21.60;;;7.72;;
37267;SDS011;23154;52.542;13.362;2022-07-25T09:59:52;17.42;;;6.82;;
37267;SDS011;23154;52.542;13.362;2022-07-25T10:02:25;20.92;;;7.53;;
37267;SDS011;23154;52.542;13.362;2022-07-25T10:05:11;16.00;;;7.18;;
37267;SDS011;23154;52.542;13.362;2022-07-25T10:07:38;16.00;;;6.80;;
37267;SDS011;23154;52.542;13.362;2022-07-25T10:10:05;16.77;;;6.95;;
37267;SDS011;23154;52.542;13.362;2022-07-25T10:12:31;15.40;;;6.65;;
37267;SDS011;23154;52.542;13.362;2022-07-25T10:15:04;19.63;;;7.20;;
37267;SDS011;23154;52.542;13.362;2022-07-25T10:17:36;17.98;;;7.50;;
37267;SDS011;23154;52.542;13.362;2022-07-25T10:20:03;19.60;;;6.80;;
37267;SDS011;23154;52.542;13.362;2022-07-25T10:22:35;15.38;;;6.82;;
37267;SDS011;23154;52.542;13.362;2022-07-25T10:25:06;19.35;;;8.25;;
37267;SDS011;23154;52.542;13.362;2022-07-25T10:27:45;19.38;;;7.75;;
37267;SDS011;23154;52.542;13.362;2022-07-25T10:30:23;23.05;;;7.63;;
37267;SDS011;23154;52.542;13.362;2022-07-25T10:35:23;19.45;;;7.85;;
37267;SDS011;23154;52.542;13.362;2022-07-25T10:37:51;17.77;;;7.00;;
37267;SDS011;23154;52.542;13.362;2022-07-25T10:40:26;18.83;;;7.38;;
37267;SDS011;23154;52.542;13.362;2022-07-25T10:45:40;17.63;;;7.43;;
37267;SDS011;23154;52.542;13.362;2022-07-25T10:48:36;19.42;;;7.68;;
37267;SDS011;23154;52.542;13.362;2022-07-25T10:51:06;19.90;;;7.60;;
37267;SDS011;23154;52.542;13.362;2022-07-25T10:53:43;19.30;;;7.50;;
37267;SDS011;23154;52.542;13.362;2022-07-25T10:56:15;25.20;;;7.90;;
37267;SDS011;23154;52.542;13.362;2022-07-25T10:58:52;20.02;;;7.78;;
37267;SDS011;23154;52.542;13.362;2022-07-25T11:01:26;20.05;;;8.15;;
37267;SDS011;23154;52.542;13.362;2022-07-25T11:04:02;21.45;;;7.60;;
37267;SDS011;23154;52.542;13.362;2022-07-25T11:06:39;18.65;;;7.85;;
37267;SDS011;23154;52.542;13.362;2022-07-25T11:09:13;17.23;;;7.28;;
37267;SDS011;23154;52.542;13.362;2022-07-25T11:11:43;21.00;;;7.97;;
37267;SDS011;23154;52.542;13.362;2022-07-25T11:16:44;16.40;;;7.72;;
37267;SDS011;23154;52.542;13.362;2022-07-25T11:19:22;20.75;;;7.18;;
37267;SDS011;23154;52.542;13.362;2022-07-25T11:21:59;19.67;;;6.85;;
37267;SDS011;23154;52.542;13.362;2022-07-25T11:24:38;21.35;;;7.63;;
37267;SDS011;23154;52.542;13.362;2022-07-25T11:27:05;20.42;;;7.10;;
37267;SDS011;23154;52.542;13.362;2022-07-25T11:29:33;18.10;;;7.30;;
37267;SDS011;23154;52.542;13.362;2022-07-25T11:32:00;17.65;;;7.07;;
37267;SDS011;23154;52.542;13.362;2022-07-25T11:34:37;19.35;;;7.22;;
37267;SDS011;23154;52.542;13.362;2022-07-25T11:37:09;15.10;;;6.65;;
37267;SDS011;23154;52.542;13.362;2022-07-25T11:39:36;16.83;;;7.18;;
37267;SDS011;23154;52.542;13.362;2022-07-25T11:42:04;17.45;;;6.78;;
37267;SDS011;23154;52.542;13.362;2022-07-25T11:44:31;27.17;;;7.63;;
37267;SDS011;23154;52.542;13.362;2022-07-25T11:47:02;19.08;;;7.35;;
37267;SDS011;23154;52.542;13.362;2022-07-25T11:49:45;15.57;;;6.68;;
37267;SDS011;23154;52.542;13.362;2022-07-25T11:52:31;18.25;;;6.57;;
37267;SDS011;23154;52.542;13.362;2022-07-25T11:57:38;18.02;;;6.63;;
37267;SDS011;23154;52.542;13.362;2022-07-25T12:00:24;18.52;;;7.70;;
37267;SDS011;23154;52.542;13.362;2022-07-25T12:02:49;17.92;;;7.00;;
37267;SDS011;23154;52.542;13.362;2022-07-25T12:05:16;21.85;;;7.25;;
37267;SDS011;23154;52.542;13.362;2022-07-25T12:07:46;19.65;;;6.90;;
37267;SDS011;23154;52.542;13.362;2022-07-25T12:10:34;20.63;;;6.97;;
37267;SDS011;23154;52.542;13.362;2022-07-25T12:12:59;24.95;;;6.57;;
37267;SDS011;23154;52.542;13.362;2022-07-25T12:15:28;21.08;;;7.18;;
37267;SDS011;23154;52.542;13.362;2022-07-25T12:17:56;22.38;;;6.90;;
37267;SDS011;23154;52.542;13.362;2022-07-25T12:20:23;22.23;;;7.88;;
37267;SDS011;23154;52.542;13.362;2022-07-25T12:22:52;16.30;;;6.63;;
37267;SDS011;23154;52.542;13.362;2022-07-25T12:25:20;16.50;;;6.80;;
37267;SDS011;23154;52.542;13.362;2022-07-25T12:27:46;17.05;;;6.63;;
37267;SDS011;23154;52.542;13.362;2022-07-25T12:30:12;14.90;;;6.72;;
37267;SDS011;23154;52.542;13.362;2022-07-25T12:32:38;16.15;;;7.10;;
37267;SDS011;23154;52.542;13.362;2022-07-25T12:35:05;14.18;;;6.45;;
37267;SDS011;23154;52.542;13.362;2022-07-25T12:37:32;14.70;;;6.07;;
37267;SDS011;23154;52.542;13.362;2022-07-25T12:39:58;16.38;;;6.78;;
37267;SDS011;23154;52.542;13.362;2022-07-25T12:42:25;14.52;;;6.15;;
37267;SDS011;23154;52.542;13.362;2022-07-25T12:44:53;16.58;;;7.00;;
37267;SDS011;23154;52.542;13.362;2022-07-25T12:47:19;18.20;;;6.45;;
37267;SDS011;23154;52.542;13.362;2022-07-25T12:49:45;17.20;;;6.82;;
37267;SDS011;23154;52.542;13.362;2022-07-25T12:52:11;18.55;;;6.57;;
37267;SDS011;23154;52.542;13.362;2022-07-25T12:54:37;19.85;;;7.35;;
37267;SDS011;23154;52.542;13.362;2022-07-25T12:57:03;14.93;;;6.78;;
37267;SDS011;23154;52.542;13.362;2022-07-25T12:59:29;16.60;;;6.40;;
37267;SDS011;23154;52.542;13.362;2022-07-25T13:01:56;15.20;;;6.68;;
37267;SDS011;23154;52.542;13.362;2022-07-25T13:04:21;15.93;;;6.63;;
37267;SDS011;23154;52.542;13.362;2022-07-25T13:06:47;17.45;;;7.18;;
37267;SDS011;23154;52.542;13.362;2022-07-25T13:09:13;19.67;;;7.03;;
37267;SDS011;23154;52.542;13.362;2022-07-25T13:11:38;16.42;;;6.47;;
37267;SDS011;23154;52.542;13.362;2022-07-25T13:14:04;16.63;;;7.05;;
37267;SDS011;23154;52.542;13.362;2022-07-25T13:16:30;21.15;;;8.35;;
37267;SDS011;23154;52.542;13.362;2022-07-25T13:18:55;15.82;;;6.47;;
37267;SDS011;23154;52.542;13.362;2022-07-25T13:21:21;21.30;;;7.28;;
37267;SDS011;23154;52.542;13.362;2022-07-25T13:23:47;20.52;;;7.05;;
37267;SDS011;23154;52.542;13.362;2022-07-25T13:26:13;16.63;;;7.10;;
37267;SDS011;23154;52.542;13.362;2022-07-25T13:28:38;16.70;;;6.57;;
37267;SDS011;23154;52.542;13.362;2022-07-25T13:31:04;17.58;;;7.55;;
37267;SDS011;23154;52.542;13.362;2022-07-25T13:33:31;18.08;;;6.95;;
37267;SDS011;23154;52.542;13.362;2022-07-25T13:35:57;17.88;;;7.45;;
37267;SDS011;23154;52.542;13.362;2022-07-25T13:38:23;16.83;;;7.07;;
37267;SDS011;23154;52.542;13.362;2022-07-25T13:40:48;17.38;;;6.68;;
37267;SDS011;23154;52.542;13.362;2022-07-25T13:43:14;14.18;;;6.28;;
37267;SDS011;23154;52.542;13.362;2022-07-25T13:45:40;19.35;;;7.10;;
37267;SDS011;23154;52.542;13.362;2022-07-25T13:48:06;19.55;;;6.30;;
37267;SDS011;23154;52.542;13.362;2022-07-25T13:50:32;18.80;;;6.50;;
37267;SDS011;23154;52.542;13.362;2022-07-25T13:52:59;16.50;;;6.60;;
37267;SDS011;23154;52.542;13.362;2022-07-25T13:55:25;18.63;;;6.97;;
37267;SDS011;23154;52.542;13.362;2022-07-25T13:57:52;15.93;;;6.90;;
37267;SDS011;23154;52.542;13.362;2022-07-25T14:00:17;15.30;;;6.15;;
37267;SDS011;23154;52.542;13.362;2022-07-25T14:02:43;18.00;;;6.75;;
37267;SDS011;23154;52.542;13.362;2022-07-25T14:05:09;17.90;;;7.00;;
37267;SDS011;23154;52.542;13.362;2022-07-25T14:07:35;20.85;;;6.55;;
37267;SDS011;23154;52.542;13.362;2022-07-25T14:10:01;21.63;;;6.68;;
37267;SDS011;23154;52.542;13.362;2022-07-25T14:12:28;14.23;;;6.80;;
37267;SDS011;23154;52.542;13.362;2022-07-25T14:14:54;16.35;;;6.57;;
37267;SDS011;23154;52.542;13.362;2022-07-25T14:17:20;17.73;;;6.53;;
37267;SDS011;23154;52.542;13.362;2022-07-25T14:19:46;18.25;;;7.07;;
37267;SDS011;23154;52.542;13.362;2022-07-25T14:22:11;16.15;;;5.85;;
37267;SDS011;23154;52.542;13.362;2022-07-25T14:24:37;16.45;;;6.35;;
37267;SDS011;23154;52.542;13.362;2022-07-25T14:27:03;17.98;;;6.85;;
37267;SDS011;23154;52.542;13.362;2022-07-25T14:29:29;14.77;;;6.38;;
37267;SDS011;23154;52.542;13.362;2022-07-25T14:31:54;15.63;;;6.63;;
37267;SDS011;23154;52.542;13.362;2022-07-25T14:34:20;16.27;;;6.38;;
37267;SDS011;23154;52.542;13.362;2022-07-25T14:36:46;15.95;;;6.07;;
37267;SDS011;23154;52.542;13.362;2022-07-25T14:39:12;18.33;;;6.47;;
37267;SDS011;23154;52.542;13.362;2022-07-25T14:41:38;15.82;;;6.43;;
37267;SDS011;23154;52.542;13.362;2022-07-25T14:44:04;18.33;;;6.60;;